createdAt,value
2023-04-04T00:00:54.026Z,92.78
2023-04-04T00:03:29.161Z,92.94
2023-04-04T00:05:57.365Z,93.21
2023-04-04T00:08:25.666Z,93.26
2023-04-04T00:11:01.405Z,93.31
2023-04-04T00:13:31.136Z,93.21
2023-04-04T00:15:59.206Z,93.43
2023-04-04T00:18:27.332Z,93.34
2023-04-04T00:20:55.491Z,93.40
2023-04-04T00:23:27.709Z,93.54
2023-04-04T00:25:56.095Z,93.44
2023-04-04T00:28:24.225Z,93.40
2023-04-04T00:30:52.366Z,93.44
2023-04-04T00:33:21.749Z,93.54
2023-04-04T00:35:50.348Z,93.54
2023-04-04T00:38:19.157Z,93.86
2023-04-04T00:40:48.014Z,93.69
2023-04-04T00:43:17.167Z,93.46
2023-04-04T00:45:46.271Z,93.61
2023-04-04T00:48:17.962Z,93.72
2023-04-04T00:50:46.023Z,93.62
2023-04-04T00:53:14.308Z,93.77
2023-04-04T00:55:44.186Z,93.85
2023-04-04T00:58:14.209Z,93.43
2023-04-04T01:00:43.021Z,93.49
2023-04-04T01:03:25.027Z,93.73
2023-04-04T01:05:55.029Z,93.47
2023-04-04T01:08:23.510Z,93.70
2023-04-04T01:10:52.445Z,93.60
2023-04-04T01:13:21.280Z,93.70
2023-04-04T01:15:49.580Z,93.46
2023-04-04T01:18:19.176Z,93.39
2023-04-04T01:20:55.668Z,93.62
2023-04-04T01:23:24.996Z,93.30
2023-04-04T01:25:59.877Z,93.51
2023-04-04T01:28:27.977Z,93.48
2023-04-04T01:30:56.905Z,93.50
2023-04-04T01:33:29.423Z,93.22
2023-04-04T01:35:58.335Z,93.08
2023-04-04T01:38:31.517Z,92.98
2023-04-04T01:41:02.626Z,93.00
2023-04-04T01:43:34.761Z,92.73
2023-04-04T01:46:04.140Z,92.91
2023-04-04T01:48:32.429Z,92.81
2023-04-04T01:51:04.896Z,92.96
2023-04-04T01:53:33.859Z,93.02
2023-04-04T01:56:02.591Z,92.90
2023-04-04T01:58:33.784Z,92.80
2023-04-04T02:01:02.118Z,92.58
2023-04-04T02:03:30.820Z,92.74
2023-04-04T02:05:58.873Z,92.58
2023-04-04T02:08:28.880Z,92.41
2023-04-04T02:10:57.917Z,92.60
2023-04-04T02:13:31.458Z,92.57
2023-04-04T02:16:04.559Z,92.73
2023-04-04T02:18:33.665Z,92.73
2023-04-04T02:21:01.832Z,92.88
2023-04-04T02:23:31.361Z,92.73
2023-04-04T02:25:59.730Z,93.09
2023-04-04T02:28:32.243Z,93.07
2023-04-04T02:31:03.990Z,93.25
2023-04-04T02:33:33.298Z,93.13
2023-04-04T02:36:07.718Z,93.49
2023-04-04T02:38:36.801Z,93.37
2023-04-04T02:41:06.434Z,93.46
2023-04-04T02:43:34.542Z,93.42
2023-04-04T02:46:14.448Z,93.34
2023-04-04T02:48:47.385Z,93.69
2023-04-04T02:51:15.933Z,93.61
2023-04-04T02:53:43.989Z,93.42
2023-04-04T02:56:21.364Z,93.51
2023-04-04T02:58:50.570Z,93.64
2023-04-04T03:01:19.138Z,93.54
2023-04-04T03:03:47.942Z,93.65
2023-04-04T03:06:16.211Z,93.73
2023-04-04T03:08:44.233Z,93.55
2023-04-04T03:11:13.594Z,93.75
2023-04-04T03:13:42.048Z,93.63
2023-04-04T03:16:10.479Z,93.79
2023-04-04T03:18:48.624Z,93.45
2023-04-04T03:21:20.207Z,93.46
2023-04-04T03:23:49.020Z,93.46
2023-04-04T03:26:17.149Z,93.25
2023-04-04T03:28:46.153Z,93.14
2023-04-04T03:31:14.959Z,93.48
2023-04-04T03:33:45.294Z,93.59
2023-04-04T03:36:13.500Z,93.46
2023-04-04T03:38:44.772Z,93.25
2023-04-04T03:41:13.109Z,93.57
2023-04-04T03:43:43.300Z,93.65
2023-04-04T03:46:11.480Z,93.51
2023-04-04T03:48:39.739Z,93.32
2023-04-04T03:51:11.297Z,93.41
2023-04-04T03:53:40.929Z,93.24
2023-04-04T03:56:12.617Z,93.20
2023-04-04T03:58:43.054Z,93.15
2023-04-04T04:01:13.595Z,93.35
2023-04-04T04:03:45.372Z,92.94
2023-04-04T04:06:13.496Z,93.05
2023-04-04T04:08:41.524Z,92.99
2023-04-04T04:11:12.560Z,93.03
2023-04-04T04:13:40.725Z,93.17
2023-04-04T04:16:09.280Z,93.40
2023-04-04T04:18:38.138Z,93.43
2023-04-04T04:21:07.645Z,93.51
2023-04-04T04:23:36.816Z,93.66
2023-04-04T04:26:05.496Z,93.55
2023-04-04T04:28:34.643Z,93.65
2023-04-04T04:31:07.632Z,93.53
2023-04-04T04:33:36.839Z,93.79
2023-04-04T04:36:08.265Z,93.58
2023-04-04T04:39:02.444Z,93.53
2023-04-04T04:41:33.512Z,93.50
2023-04-04T04:44:02.311Z,93.66
2023-04-04T04:46:32.325Z,93.51
2023-04-04T04:49:06.567Z,93.76
2023-04-04T04:51:36.325Z,93.53
2023-04-04T04:54:04.469Z,93.25
2023-04-04T04:56:34.354Z,93.42
2023-04-04T04:59:09.297Z,93.42
2023-04-04T05:01:42.996Z,93.55
2023-04-04T05:04:11.380Z,93.58
2023-04-04T05:06:45.087Z,93.32
2023-04-04T05:09:15.776Z,93.34
2023-04-04T05:11:47.919Z,93.47
2023-04-04T05:14:16.522Z,93.48
2023-04-04T05:16:53.776Z,93.16
2023-04-04T05:19:22.942Z,93.18
2023-04-04T05:21:54.309Z,93.04
2023-04-04T05:24:43.898Z,93.22
2023-04-04T05:27:14.756Z,93.23
2023-04-04T05:29:48.341Z,93.02
2023-04-04T05:32:19.283Z,93.26
2023-04-04T05:34:54.143Z,93.17
2023-04-04T05:37:23.106Z,93.34
2023-04-04T05:39:53.972Z,93.45
2023-04-04T05:42:23.399Z,93.35
2023-04-04T05:44:53.404Z,93.53
2023-04-04T05:47:23.027Z,93.44
2023-04-04T05:49:52.315Z,93.56
2023-04-04T05:52:22.017Z,93.66
2023-04-04T05:54:51.521Z,93.87
2023-04-04T05:57:26.257Z,93.82
2023-04-04T06:00:00.692Z,93.58
2023-04-04T06:02:32.259Z,93.48
2023-04-04T06:05:04.261Z,93.32
2023-04-04T06:07:36.086Z,93.12
2023-04-04T06:10:04.709Z,93.18
2023-04-04T06:12:35.841Z,93.14
2023-04-04T06:15:07.853Z,93.24
2023-04-04T06:17:38.070Z,93.27
2023-04-04T06:20:08.562Z,93.24
2023-04-04T06:22:36.965Z,93.31
2023-04-04T06:25:06.614Z,93.07
2023-04-04T06:27:36.512Z,92.92
2023-04-04T06:30:08.969Z,92.71
2023-04-04T06:32:45.301Z,92.82
2023-04-04T06:35:20.105Z,92.92
2023-04-04T06:37:56.998Z,92.63
2023-04-04T06:40:27.847Z,92.57
2023-04-04T06:42:58.445Z,92.71
2023-04-04T06:45:39.270Z,92.44
2023-04-04T06:48:07.907Z,92.33
2023-04-04T06:50:36.811Z,92.11
2023-04-04T06:53:08.684Z,91.83
2023-04-04T06:55:37.225Z,91.77
2023-04-04T06:58:10.539Z,91.72
2023-04-04T07:00:38.979Z,91.58
2023-04-04T07:03:08.096Z,91.37
2023-04-04T07:05:39.678Z,91.51
2023-04-04T07:08:08.805Z,91.63
2023-04-04T07:10:38.527Z,91.78
2023-04-04T07:13:10.152Z,91.66
2023-04-04T07:15:38.369Z,91.54
2023-04-04T07:18:07.976Z,91.68
2023-04-04T07:20:36.537Z,91.56
2023-04-04T07:23:04.832Z,91.26
2023-04-04T07:25:33.139Z,91.24
2023-04-04T07:28:11.859Z,91.31
2023-04-04T07:30:42.371Z,90.81
2023-04-04T07:33:11.711Z,90.77
2023-04-04T07:35:40.203Z,90.91
2023-04-04T07:38:17.662Z,90.97
2023-04-04T07:40:45.792Z,91.02
2023-04-04T07:43:14.193Z,90.56
2023-04-04T07:45:42.261Z,90.42
2023-04-04T07:48:10.371Z,90.21
2023-04-04T07:50:38.636Z,90.43
2023-04-04T07:53:07.591Z,90.15
2023-04-04T07:55:35.680Z,90.21
2023-04-04T07:58:04.410Z,90.40
2023-04-04T08:00:32.696Z,90.00
2023-04-04T08:03:20.699Z,90.12
2023-04-04T08:05:49.161Z,90.09
2023-04-04T08:08:17.389Z,90.22
2023-04-04T08:10:46.886Z,89.92
2023-04-04T08:13:16.102Z,90.08
2023-04-04T08:15:44.307Z,89.78
2023-04-04T08:18:12.526Z,89.88
2023-04-04T08:20:41.587Z,89.80
2023-04-04T08:23:10.076Z,89.64
2023-04-04T08:25:39.481Z,89.47
2023-04-04T08:28:08.341Z,89.48
2023-04-04T08:30:36.876Z,89.31
2023-04-04T08:33:13.021Z,89.66
2023-04-04T08:35:41.517Z,89.58
2023-04-04T08:38:09.633Z,89.41
2023-04-04T08:40:38.842Z,89.07
2023-04-04T08:43:09.454Z,89.03
2023-04-04T08:45:39.442Z,88.70
2023-04-04T08:48:08.003Z,88.69
2023-04-04T08:50:37.098Z,88.82
2023-04-04T08:53:06.368Z,89.07
2023-04-04T08:55:35.536Z,89.00
2023-04-04T08:58:03.899Z,88.73
2023-04-04T09:00:32.515Z,88.77
2023-04-04T09:03:15.680Z,88.83
2023-04-04T09:05:45.001Z,88.82
2023-04-04T09:08:13.887Z,88.54
2023-04-04T09:10:44.266Z,88.75
2023-04-04T09:13:16.124Z,88.41
2023-04-04T09:15:48.212Z,88.09
2023-04-04T09:18:16.728Z,88.30
2023-04-04T09:20:45.528Z,88.28
2023-04-04T09:23:14.524Z,87.97
2023-04-04T09:28:24.068Z,87.77
2023-04-04T09:30:52.426Z,87.56
2023-04-04T09:33:24.798Z,87.68
2023-04-04T09:35:59.973Z,87.47
2023-04-04T09:38:31.420Z,87.47
2023-04-04T09:41:00.000Z,87.41
2023-04-04T09:43:31.060Z,87.60
2023-04-04T09:46:00.463Z,87.03
2023-04-04T09:48:33.431Z,86.97
2023-04-04T09:51:04.123Z,86.29
2023-04-04T09:53:34.359Z,86.46
2023-04-04T09:56:03.682Z,86.60
2023-04-04T09:58:36.189Z,86.33
2023-04-04T10:01:07.610Z,86.42
2023-04-04T10:03:36.856Z,85.99
2023-04-04T10:06:10.888Z,85.87
2023-04-04T10:08:39.645Z,85.85
2023-04-04T10:11:11.871Z,85.79
2023-04-04T10:13:42.149Z,85.37
2023-04-04T10:16:12.241Z,85.22
2023-04-04T10:18:41.573Z,84.89
2023-04-04T10:23:42.875Z,84.85
2023-04-04T10:26:13.118Z,84.76
2023-04-04T10:28:44.445Z,84.64
2023-04-04T10:31:17.582Z,84.69
2023-04-04T10:33:49.093Z,84.61
2023-04-04T10:36:21.946Z,83.98
2023-04-04T10:39:10.136Z,84.21
2023-04-04T10:41:38.274Z,83.95
2023-04-04T10:44:34.041Z,84.03
2023-04-04T10:47:23.474Z,83.83
2023-04-04T10:49:52.097Z,83.84
2023-04-04T10:52:20.972Z,83.42
2023-04-04T10:54:52.946Z,83.18
2023-04-04T10:57:23.343Z,83.08
2023-04-04T11:00:08.921Z,82.57
2023-04-04T11:02:45.885Z,82.24
2023-04-04T11:05:24.423Z,82.33
2023-04-04T11:08:07.580Z,82.00
2023-04-04T11:10:43.428Z,82.34
2023-04-04T11:13:17.406Z,82.28
2023-04-04T11:15:48.299Z,82.11
2023-04-04T11:18:40.470Z,81.77
2023-04-04T11:21:10.409Z,81.28
2023-04-04T11:23:48.591Z,81.37
2023-04-04T11:26:34.475Z,81.54
2023-04-04T11:29:08.183Z,81.27
2023-04-04T11:31:47.463Z,81.02
2023-04-04T11:34:16.689Z,80.82
2023-04-04T11:36:47.544Z,80.65
2023-04-04T11:39:25.781Z,80.64
2023-04-04T11:41:54.265Z,80.48
2023-04-04T11:44:24.124Z,80.58
2023-04-04T11:46:56.046Z,80.60
2023-04-04T11:49:29.136Z,80.75
2023-04-04T11:51:57.480Z,80.79
2023-04-04T11:54:32.629Z,80.78
2023-04-04T11:57:01.676Z,80.19
2023-04-04T11:59:33.398Z,80.31
2023-04-04T12:02:03.265Z,80.33
2023-04-04T12:04:31.885Z,80.68
2023-04-04T12:07:00.563Z,80.38
2023-04-04T12:09:29.509Z,80.38
2023-04-04T12:11:58.122Z,80.55
2023-04-04T12:14:28.017Z,80.31
2023-04-04T12:16:57.628Z,80.12
2023-04-04T12:19:26.674Z,79.95
2023-04-04T12:21:57.470Z,80.00
2023-04-04T12:24:26.813Z,80.06
2023-04-04T12:26:54.980Z,80.05
2023-04-04T12:29:23.242Z,80.03
2023-04-04T12:31:51.676Z,80.27
2023-04-04T12:37:03.938Z,80.13
2023-04-04T12:39:32.272Z,80.03
2023-04-04T12:42:02.576Z,80.01
2023-04-04T12:44:38.230Z,80.16
2023-04-04T12:47:09.000Z,80.21
2023-04-04T12:49:40.791Z,80.07
2023-04-04T12:52:16.815Z,79.93
2023-04-04T12:54:48.754Z,79.95
2023-04-04T12:57:19.573Z,80.38
2023-04-04T12:59:48.445Z,80.48
2023-04-04T13:02:20.076Z,80.44
2023-04-04T13:04:57.647Z,80.52
2023-04-04T13:07:27.512Z,80.47
2023-04-04T13:09:56.583Z,80.25
2023-04-04T13:12:52.864Z,80.55
2023-04-04T13:15:21.295Z,80.40
2023-04-04T13:17:50.508Z,80.49
2023-04-04T13:20:20.408Z,80.28
2023-04-04T13:22:48.508Z,80.59
2023-04-04T13:25:23.471Z,80.56
2023-04-04T13:27:52.405Z,80.63
2023-04-04T13:30:20.445Z,80.61
2023-04-04T13:32:48.812Z,80.58
2023-04-04T13:35:17.973Z,80.43
2023-04-04T13:37:47.469Z,80.32
2023-04-04T13:40:15.620Z,80.26
2023-04-04T13:42:44.113Z,80.50
2023-04-04T13:45:13.645Z,80.20
2023-04-04T13:47:41.788Z,80.08
2023-04-04T13:50:10.556Z,80.02
2023-04-04T13:52:39.098Z,79.80
2023-04-04T13:55:07.298Z,79.68
2023-04-04T13:57:36.222Z,79.63
2023-04-04T14:00:05.734Z,79.68
2023-04-04T14:02:42.422Z,80.19
2023-04-04T14:05:10.524Z,80.59
2023-04-04T14:07:38.865Z,80.22
2023-04-04T14:10:13.797Z,79.92
2023-04-04T14:12:42.994Z,79.73
2023-04-04T14:15:12.394Z,79.65
2023-04-04T14:17:43.342Z,79.99
2023-04-04T14:20:11.840Z,79.88
2023-04-04T14:22:40.109Z,79.63
2023-04-04T14:25:08.834Z,79.42
2023-04-04T14:27:38.822Z,79.31
2023-04-04T14:30:08.207Z,79.34
2023-04-04T14:32:37.902Z,79.20
2023-04-04T14:35:06.369Z,79.16
2023-04-04T14:37:34.793Z,79.15
2023-04-04T14:40:04.211Z,79.29
2023-04-04T14:42:32.933Z,79.15
2023-04-04T14:45:05.304Z,79.26
2023-04-04T14:47:34.967Z,79.36
2023-04-04T14:50:04.319Z,79.50
2023-04-04T14:52:32.579Z,79.51
2023-04-04T14:55:01.202Z,79.44
2023-04-04T14:57:51.947Z,79.68
2023-04-04T15:00:26.731Z,79.69
2023-04-04T15:02:55.100Z,79.52
2023-04-04T15:05:28.720Z,79.63
2023-04-04T15:07:56.784Z,79.74
2023-04-04T15:10:25.241Z,79.62
2023-04-04T15:12:55.357Z,79.66
2023-04-04T15:15:23.835Z,79.59
2023-04-04T15:17:52.798Z,79.41
2023-04-04T15:20:21.905Z,79.55
2023-04-04T15:22:50.719Z,79.55
2023-04-04T15:25:18.776Z,79.34
2023-04-04T15:27:47.896Z,79.74
2023-04-04T15:30:16.210Z,79.86
2023-04-04T15:32:45.452Z,79.83
2023-04-04T15:35:17.832Z,79.71
2023-04-04T15:37:46.534Z,79.74
2023-04-04T15:40:16.074Z,79.85
2023-04-04T15:42:44.853Z,79.81
2023-04-04T15:45:13.227Z,79.88
2023-04-04T15:47:42.436Z,79.72
2023-04-04T15:50:11.966Z,80.05
2023-04-04T15:52:41.903Z,80.09
2023-04-04T15:55:13.643Z,80.13
2023-04-04T15:57:44.847Z,80.13
2023-04-04T16:00:13.985Z,80.19
2023-04-04T16:02:44.054Z,80.27
2023-04-04T16:05:12.773Z,80.50
2023-04-04T16:07:41.068Z,80.42
2023-04-04T16:10:13.482Z,80.46
2023-04-04T16:12:42.166Z,80.36
2023-04-04T16:15:12.558Z,80.33
2023-04-04T16:17:41.020Z,80.32
2023-04-04T16:20:10.387Z,80.24
2023-04-04T16:22:38.629Z,80.58
2023-04-04T16:25:09.108Z,80.72
2023-04-04T16:27:37.794Z,80.73
2023-04-04T16:30:09.630Z,80.73
2023-04-04T16:32:38.579Z,81.12
2023-04-04T16:35:07.086Z,81.34
2023-04-04T16:37:37.276Z,81.42
2023-04-04T16:40:06.834Z,81.58
2023-04-04T16:42:35.178Z,81.96
2023-04-04T16:45:03.557Z,82.07
2023-04-04T16:47:32.011Z,82.07
2023-04-04T16:50:01.592Z,82.09
2023-04-04T16:52:31.392Z,82.40
2023-04-04T16:54:59.710Z,82.58
2023-04-04T16:57:27.970Z,82.77
2023-04-04T16:59:56.106Z,82.79
2023-04-04T17:02:24.301Z,83.20
2023-04-04T17:04:52.794Z,83.46
2023-04-04T17:07:21.431Z,83.72
2023-04-04T17:09:51.619Z,83.86
2023-04-04T17:12:23.142Z,84.11
2023-04-04T17:14:53.847Z,84.20
2023-04-04T17:17:22.162Z,84.42
2023-04-04T17:19:50.216Z,84.68
2023-04-04T17:22:18.420Z,84.88
2023-04-04T17:24:46.564Z,85.09
2023-04-04T17:27:14.618Z,85.42
2023-04-04T17:29:43.208Z,85.57
2023-04-04T17:32:11.961Z,85.77
2023-04-04T17:34:40.844Z,86.09
